createdAt,value
2022-09-13T00:04:55.660Z,7.40
2022-09-13T00:11:41.037Z,6.77
2022-09-13T00:18:29.014Z,7.23
2022-09-13T00:25:14.563Z,6.72
2022-09-13T00:32:00.018Z,7.40
2022-09-13T00:38:49.437Z,6.13
2022-09-13T00:45:35.475Z,6.82
2022-09-13T00:59:17.512Z,6.53
2022-09-13T01:06:09.596Z,6.45
2022-09-13T01:13:02.036Z,6.15
2022-09-13T01:19:50.019Z,6.05
2022-09-13T01:27:05.504Z,6.45
2022-09-13T01:34:15.475Z,6.32
2022-09-13T01:41:12.849Z,6.70
2022-09-13T01:48:03.495Z,6.45
2022-09-13T01:55:02.716Z,7.40
2022-09-13T02:01:55.257Z,6.15
2022-09-13T02:08:45.297Z,6.47
2022-09-13T02:15:39.845Z,7.90
2022-09-13T02:22:32.013Z,7.32
2022-09-13T02:29:23.293Z,7.68
2022-09-13T02:36:15.240Z,7.35
2022-09-13T02:43:07.829Z,7.82
2022-09-13T03:03:43.825Z,8.48
2022-09-13T03:10:35.116Z,8.07
2022-09-13T03:17:43.832Z,8.98
2022-09-13T03:24:43.509Z,7.82
2022-09-13T03:31:37.269Z,8.15
2022-09-13T03:38:30.072Z,9.95
2022-09-13T03:45:23.094Z,8.45
2022-09-13T03:52:09.245Z,9.65
2022-09-13T03:58:54.863Z,9.15
2022-09-13T04:05:43.065Z,8.97
2022-09-13T04:12:31.328Z,9.50
2022-09-13T04:19:17.291Z,9.73
2022-09-13T04:26:09.256Z,9.30
2022-09-13T04:32:57.847Z,8.70
2022-09-13T04:39:43.762Z,9.48
2022-09-13T04:46:32.325Z,9.38
2022-09-13T04:53:18.370Z,9.75
2022-09-13T05:00:03.960Z,9.95
2022-09-13T05:06:52.540Z,9.93
2022-09-13T05:13:38.382Z,8.95
2022-09-13T05:20:23.948Z,11.05
2022-09-13T05:27:12.903Z,9.20
2022-09-13T05:34:01.826Z,9.15
2022-09-13T05:40:47.350Z,8.75
2022-09-13T05:47:36.163Z,8.20
2022-09-13T05:54:21.898Z,8.02
2022-09-13T06:01:07.617Z,11.20
2022-09-13T06:07:55.663Z,8.82
2022-09-13T06:14:41.012Z,8.35
2022-09-13T06:21:29.092Z,8.20
2022-09-13T06:28:17.396Z,11.60
2022-09-13T06:35:02.957Z,9.48
2022-09-13T06:41:48.795Z,11.30
2022-09-13T06:48:41.348Z,9.88
2022-09-13T06:55:26.903Z,8.85
2022-09-13T07:02:14.585Z,11.27
2022-09-13T07:09:05.159Z,9.85
2022-09-13T07:15:50.649Z,9.40
2022-09-13T07:22:36.082Z,10.93
2022-09-13T07:29:25.857Z,10.00
2022-09-13T07:36:12.869Z,15.02
2022-09-13T07:42:58.363Z,14.02
2022-09-13T07:49:46.928Z,13.00
2022-09-13T07:56:34.667Z,14.77
2022-09-13T08:03:20.009Z,11.32
2022-09-13T08:10:09.524Z,13.83
2022-09-13T08:16:58.468Z,13.57
2022-09-13T08:23:44.667Z,11.82
2022-09-13T08:37:18.741Z,14.48
2022-09-13T08:44:11.132Z,13.30
2022-09-13T08:51:08.776Z,16.25
2022-09-13T08:58:00.707Z,13.05
2022-09-13T09:04:53.675Z,11.70
2022-09-13T09:11:51.498Z,12.85
2022-09-13T09:18:43.211Z,14.18
2022-09-13T09:25:29.421Z,12.90
2022-09-13T09:32:39.131Z,13.95
2022-09-13T09:39:26.427Z,13.07
2022-09-13T09:46:15.542Z,12.18
2022-09-13T09:53:11.696Z,12.25
2022-09-13T10:00:15.083Z,11.52
2022-09-13T10:07:29.819Z,11.77
2022-09-13T10:14:38.720Z,11.15
2022-09-13T10:21:29.188Z,11.65
2022-09-13T10:28:20.913Z,12.98
2022-09-13T10:35:19.832Z,10.23
2022-09-13T10:42:09.695Z,9.55
2022-09-13T10:48:56.183Z,11.55
2022-09-13T10:55:44.220Z,10.63
2022-09-13T11:02:49.690Z,12.77
2022-09-13T11:09:41.689Z,12.77
2022-09-13T11:16:44.738Z,11.38
2022-09-13T11:24:13.772Z,12.80
2022-09-13T11:31:21.523Z,12.23
2022-09-13T11:38:34.375Z,12.40
2022-09-13T11:45:26.591Z,14.80
2022-09-13T11:52:23.605Z,11.98
2022-09-13T11:59:24.919Z,11.05
2022-09-13T12:06:18.653Z,14.27
2022-09-13T12:13:07.001Z,12.25
2022-09-13T12:19:58.883Z,16.45
2022-09-13T12:26:52.965Z,15.60
2022-09-13T12:33:43.204Z,15.48
2022-09-13T12:41:07.260Z,14.65
2022-09-13T12:48:14.099Z,15.40
2022-09-13T12:55:47.569Z,13.93
2022-09-13T13:02:40.394Z,16.45
2022-09-13T13:09:34.060Z,15.30
2022-09-13T13:16:29.925Z,15.13
2022-09-13T13:30:44.305Z,15.10
2022-09-13T13:37:40.798Z,13.13
2022-09-13T13:45:09.624Z,15.02
2022-09-13T13:52:41.292Z,19.75
2022-09-13T13:59:30.993Z,13.93
2022-09-13T14:06:24.943Z,14.52
2022-09-13T14:13:44.839Z,15.65
2022-09-13T14:20:30.284Z,13.80
2022-09-13T14:27:25.259Z,15.77
2022-09-13T14:34:25.152Z,13.30
2022-09-13T14:41:19.470Z,11.40
2022-09-13T14:48:13.073Z,14.80
2022-09-13T14:55:04.250Z,10.60
2022-09-13T15:01:49.653Z,11.85
2022-09-13T15:08:50.141Z,10.23
2022-09-13T15:15:40.701Z,8.18
2022-09-13T15:22:28.629Z,9.10
2022-09-13T15:29:22.725Z,10.00
2022-09-13T15:36:32.005Z,10.93
2022-09-13T15:43:17.455Z,10.05
2022-09-13T15:50:05.659Z,8.93
2022-09-13T15:56:52.364Z,13.82
2022-09-13T16:03:38.874Z,10.88
2022-09-13T16:10:27.162Z,11.30
2022-09-13T16:17:17.062Z,10.77
2022-09-13T16:24:02.461Z,11.15
2022-09-13T16:30:50.950Z,9.90
2022-09-13T16:37:36.536Z,9.40
2022-09-13T16:51:13.199Z,14.63
2022-09-13T16:57:58.943Z,8.88
2022-09-13T17:04:49.038Z,10.77
2022-09-13T17:11:42.968Z,9.15
2022-09-13T17:18:32.978Z,8.75
2022-09-13T17:25:20.908Z,9.30
2022-09-13T17:32:11.194Z,10.65
2022-09-13T17:39:01.095Z,11.60
2022-09-13T17:45:46.836Z,10.95
2022-09-13T17:52:39.546Z,10.77
2022-09-13T17:59:25.945Z,11.77
2022-09-13T18:06:14.440Z,14.93
2022-09-13T18:13:02.686Z,11.38
2022-09-13T18:19:50.360Z,15.57
2022-09-13T18:26:38.391Z,10.43
2022-09-13T18:33:31.828Z,9.40
2022-09-13T18:40:20.550Z,10.00
2022-09-13T18:47:08.607Z,10.02
2022-09-13T18:53:57.391Z,9.90
2022-09-13T19:00:43.203Z,11.65
2022-09-13T19:07:28.803Z,9.63
2022-09-13T19:21:07.426Z,11.18
2022-09-13T19:27:52.782Z,9.30
2022-09-13T19:34:40.756Z,8.98
2022-09-13T19:41:29.705Z,8.65
2022-09-13T19:55:23.883Z,10.47
2022-09-13T20:02:10.794Z,9.23
2022-09-13T20:09:00.268Z,13.20
2022-09-13T20:15:49.092Z,9.75
2022-09-13T20:22:34.506Z,9.23
2022-09-13T20:29:20.774Z,10.48
2022-09-13T20:36:13.296Z,11.60
2022-09-13T20:42:59.037Z,10.95
2022-09-13T20:56:34.919Z,11.68
2022-09-13T21:03:20.546Z,9.88
2022-09-13T21:10:06.992Z,9.68
2022-09-13T21:16:56.837Z,9.95
2022-09-13T21:23:42.347Z,9.15
2022-09-13T21:30:27.895Z,9.65
2022-09-13T21:37:16.188Z,8.30
2022-09-13T21:44:01.709Z,9.02
2022-09-13T21:50:47.159Z,9.02
2022-09-13T21:57:35.237Z,8.25
2022-09-13T22:04:24.242Z,8.43
2022-09-13T22:11:12.636Z,9.32
2022-09-13T22:18:00.605Z,8.35
2022-09-13T22:24:46.538Z,8.75
2022-09-13T22:31:34.887Z,8.20
2022-09-13T22:38:22.937Z,7.78
2022-09-13T22:45:10.611Z,8.02
2022-09-13T22:51:56.026Z,7.78
2022-09-13T22:58:44.829Z,7.90
2022-09-13T23:05:30.229Z,8.20
2022-09-13T23:12:16.187Z,8.18
2022-09-13T23:19:04.479Z,7.72
2022-09-13T23:25:49.840Z,7.25
2022-09-13T23:32:35.166Z,7.25
2022-09-13T23:39:23.836Z,9.38
2022-09-13T23:46:09.986Z,7.22
2022-09-13T23:52:55.802Z,7.10
